createdAt,value
2018-03-21T00:00:47.628Z,102274.67
2018-03-21T00:03:13.398Z,102279.86
2018-03-21T00:05:39.169Z,102282.14
2018-03-21T00:08:04.945Z,102277.42
2018-03-21T00:10:30.988Z,102281.34
2018-03-21T00:12:56.747Z,102282.78
2018-03-21T00:15:22.499Z,102281.86
2018-03-21T00:17:48.262Z,102280.92
2018-03-21T00:20:14.036Z,102276.33
2018-03-21T00:22:39.793Z,102284.02
2018-03-21T00:25:05.622Z,102289.77
2018-03-21T00:27:31.915Z,102285.15
2018-03-21T00:29:57.682Z,102295.12
2018-03-21T00:32:23.445Z,102290.02
2018-03-21T00:34:49.193Z,102288.86
2018-03-21T00:37:14.939Z,102282.82
2018-03-21T00:39:40.702Z,102280.63
2018-03-21T00:42:06.461Z,102291.15
2018-03-21T00:44:32.264Z,102286.47
2018-03-21T00:46:58.017Z,102283.04
2018-03-21T00:49:23.798Z,102287.77
2018-03-21T00:51:49.553Z,102293.86
2018-03-21T00:54:15.644Z,102299.15
2018-03-21T00:56:41.384Z,102293.14
2018-03-21T00:59:07.154Z,102287.05
2018-03-21T01:01:32.933Z,102286.10
2018-03-21T01:03:58.689Z,102286.97
2018-03-21T01:06:24.441Z,102286.10
2018-03-21T01:08:50.205Z,102282.66
2018-03-21T01:11:16.349Z,102277.06
2018-03-21T01:13:42.101Z,102281.80
2018-03-21T01:16:07.869Z,102274.13
2018-03-21T01:18:33.614Z,102277.70
2018-03-21T01:20:59.366Z,102277.87
2018-03-21T01:23:25.172Z,102274.36
2018-03-21T01:25:50.952Z,102272.64
2018-03-21T01:28:16.725Z,102261.45
2018-03-21T01:30:43.100Z,102267.90
2018-03-21T01:33:08.857Z,102264.09
2018-03-21T01:35:34.629Z,102263.25
2018-03-21T01:38:00.386Z,102278.37
2018-03-21T01:40:26.144Z,102273.95
2018-03-21T01:42:51.925Z,102279.59
2018-03-21T01:45:17.679Z,102280.64
2018-03-21T01:47:43.416Z,102280.86
2018-03-21T01:50:09.195Z,102272.66
2018-03-21T01:52:34.933Z,102277.84
2018-03-21T01:55:00.705Z,102282.75
2018-03-21T01:57:26.912Z,102288.36
2018-03-21T01:59:52.660Z,102286.63
2018-03-21T02:02:18.413Z,102288.03
2018-03-21T02:04:44.185Z,102288.52
2018-03-21T02:07:09.958Z,102282.61
2018-03-21T02:09:35.721Z,102281.39
2018-03-21T02:12:01.489Z,102279.78
2018-03-21T02:14:27.258Z,102269.08
2018-03-21T02:16:53.004Z,102273.81
2018-03-21T02:19:18.778Z,102272.08
2018-03-21T02:21:44.525Z,102267.36
2018-03-21T02:24:10.272Z,102271.39
2018-03-21T02:26:36.057Z,102269.36
2018-03-21T02:29:02.356Z,102273.47
2018-03-21T02:31:28.105Z,102270.03
2018-03-21T02:33:53.886Z,102265.71
2018-03-21T02:36:19.636Z,102264.98
2018-03-21T02:38:45.381Z,102283.14
2018-03-21T02:41:11.160Z,102279.69
2018-03-21T02:43:36.916Z,102279.52
2018-03-21T02:46:02.673Z,102280.42
2018-03-21T02:48:28.437Z,102281.18
2018-03-21T02:50:54.185Z,102279.03
2018-03-21T02:53:19.928Z,102283.78
2018-03-21T02:55:45.701Z,102282.16
2018-03-21T02:58:11.880Z,102283.12
2018-03-21T03:00:37.625Z,102282.59
2018-03-21T03:03:03.388Z,102284.14
2018-03-21T03:05:29.153Z,102279.41
2018-03-21T03:07:54.897Z,102254.57
2018-03-21T03:10:20.653Z,102273.38
2018-03-21T03:12:46.397Z,102276.81
2018-03-21T03:15:12.166Z,102277.13
2018-03-21T03:17:37.926Z,102276.16
2018-03-21T03:20:03.700Z,102269.97
2018-03-21T03:22:29.467Z,102260.37
2018-03-21T03:24:55.217Z,102274.58
2018-03-21T03:27:20.956Z,102261.61
2018-03-21T03:29:47.109Z,102276.97
2018-03-21T03:32:12.867Z,102273.48
2018-03-21T03:34:38.604Z,102268.72
2018-03-21T03:37:04.384Z,102271.92
2018-03-21T03:39:30.124Z,102274.95
2018-03-21T03:41:55.903Z,102280.23
2018-03-21T03:44:21.670Z,102275.55
2018-03-21T03:46:47.417Z,102278.95
2018-03-21T03:49:13.185Z,102271.63
2018-03-21T03:51:38.945Z,102263.64
2018-03-21T03:54:05.553Z,102264.18
2018-03-21T03:56:31.317Z,102258.91
2018-03-21T03:58:57.448Z,102266.74
2018-03-21T04:01:23.228Z,102266.31
2018-03-21T04:03:48.969Z,102260.73
2018-03-21T04:06:14.744Z,102262.01
2018-03-21T04:08:40.492Z,102266.86
2018-03-21T04:11:06.278Z,102261.29
2018-03-21T04:13:32.048Z,102267.09
2018-03-21T04:15:57.811Z,102268.02
2018-03-21T04:18:23.553Z,102275.92
2018-03-21T04:20:49.361Z,102266.53
2018-03-21T04:23:15.149Z,102269.42
2018-03-21T04:25:40.894Z,102260.83
2018-03-21T04:28:07.209Z,102265.23
2018-03-21T04:30:32.961Z,102261.79
2018-03-21T04:32:58.735Z,102265.19
2018-03-21T04:35:24.497Z,102272.92
2018-03-21T04:37:50.229Z,102269.30
2018-03-21T04:40:16.000Z,102269.69
2018-03-21T04:42:41.777Z,102263.23
2018-03-21T04:45:07.545Z,102268.16
2018-03-21T04:47:33.323Z,102270.58
2018-03-21T04:49:59.097Z,102270.87
2018-03-21T04:52:24.855Z,102254.22
2018-03-21T04:54:51.080Z,102258.81
2018-03-21T04:57:16.844Z,102256.63
2018-03-21T04:59:42.592Z,102257.97
2018-03-21T05:02:08.375Z,102254.59
2018-03-21T05:04:34.148Z,102256.38
2018-03-21T05:06:59.913Z,102261.16
2018-03-21T05:09:25.681Z,102253.05
2018-03-21T05:11:51.434Z,102256.92
2018-03-21T05:14:17.176Z,102257.73
2018-03-21T05:16:42.961Z,102269.28
2018-03-21T05:19:08.709Z,102269.28
2018-03-21T05:21:34.462Z,102264.86
2018-03-21T05:24:00.608Z,102269.52
2018-03-21T05:26:26.365Z,102261.78
2018-03-21T05:28:52.125Z,102267.86
2018-03-21T05:31:17.905Z,102261.80
2018-03-21T05:33:43.656Z,102269.96
2018-03-21T05:36:09.421Z,102272.84
2018-03-21T05:38:35.152Z,102266.75
2018-03-21T05:41:01.200Z,102258.97
2018-03-21T05:43:26.969Z,102263.33
2018-03-21T05:45:52.710Z,102264.50
2018-03-21T05:48:18.467Z,102272.97
2018-03-21T05:50:44.235Z,102270.27
2018-03-21T05:53:10.004Z,102280.91
2018-03-21T05:55:35.775Z,102250.30
2018-03-21T05:58:01.953Z,102278.44
2018-03-21T06:00:27.727Z,102272.30
2018-03-21T06:02:53.506Z,102272.92
2018-03-21T06:05:19.276Z,102275.67
2018-03-21T06:07:45.026Z,102267.61
2018-03-21T06:10:10.762Z,102255.66
2018-03-21T06:12:36.567Z,102254.17
2018-03-21T06:15:02.331Z,102261.28
2018-03-21T06:17:28.077Z,102259.56
2018-03-21T06:19:53.853Z,102259.86
2018-03-21T06:22:19.637Z,102261.02
2018-03-21T06:24:45.387Z,102265.69
2018-03-21T06:27:11.589Z,102265.06
2018-03-21T06:29:37.341Z,102273.86
2018-03-21T06:32:03.097Z,102272.59
2018-03-21T06:34:28.868Z,102269.50
2018-03-21T06:36:54.613Z,102268.88
2018-03-21T06:39:20.432Z,102263.40
2018-03-21T06:41:46.190Z,102262.81
2018-03-21T06:44:11.937Z,102272.95
2018-03-21T06:46:37.698Z,102272.66
2018-03-21T06:49:03.485Z,102266.05
2018-03-21T06:51:29.264Z,102270.74
2018-03-21T06:53:55.514Z,102279.36
2018-03-21T06:56:21.309Z,102272.33
2018-03-21T06:58:47.061Z,102269.52
2018-03-21T07:01:12.881Z,102272.59
2018-03-21T07:03:38.662Z,102266.99
2018-03-21T07:06:04.435Z,102253.33
2018-03-21T07:08:30.176Z,102286.09
2018-03-21T07:10:55.949Z,102290.75
2018-03-21T07:13:21.699Z,102292.05
2018-03-21T07:15:59.930Z,102294.63
2018-03-21T07:18:25.696Z,102292.20
2018-03-21T07:20:51.450Z,102287.92
2018-03-21T07:23:17.229Z,102290.14
2018-03-21T07:25:43.401Z,102290.23
2018-03-21T07:28:09.152Z,102295.16
2018-03-21T07:30:34.947Z,102301.59
2018-03-21T07:33:00.712Z,102299.06
2018-03-21T07:35:26.460Z,102306.17
2018-03-21T07:37:52.241Z,102306.19
2018-03-21T07:40:18.001Z,102294.05
2018-03-21T07:42:43.748Z,102299.38
2018-03-21T07:45:16.501Z,102265.80
2018-03-21T07:47:42.286Z,102279.42
2018-03-21T07:50:08.036Z,102286.59
2018-03-21T07:52:33.824Z,102283.25
2018-03-21T07:54:59.568Z,102281.33
2018-03-21T07:57:25.721Z,102280.19
2018-03-21T07:59:51.508Z,102277.34
2018-03-21T08:02:17.343Z,102287.97
2018-03-21T08:04:43.065Z,102285.52
2018-03-21T08:07:08.807Z,102286.20
2018-03-21T08:09:34.613Z,102285.59
2018-03-21T08:12:00.373Z,102286.91
2018-03-21T08:14:26.152Z,102284.16
2018-03-21T08:16:51.875Z,102291.05
2018-03-21T08:19:17.628Z,102284.72
2018-03-21T08:21:43.886Z,102279.97
2018-03-21T08:24:09.648Z,102274.45
2018-03-21T08:26:35.424Z,102268.97
2018-03-21T08:29:01.189Z,102261.69
2018-03-21T08:31:26.947Z,102278.42
2018-03-21T08:33:52.694Z,102287.74
2018-03-21T08:36:18.447Z,102285.59
2018-03-21T08:38:44.220Z,102285.42
2018-03-21T08:41:10.001Z,102284.80
2018-03-21T08:43:35.753Z,102281.55
2018-03-21T08:46:01.568Z,102285.53
2018-03-21T08:48:27.305Z,102281.89
2018-03-21T08:50:53.166Z,102280.91
2018-03-21T08:53:19.457Z,102287.11
2018-03-21T08:55:45.196Z,102282.70
2018-03-21T08:58:10.940Z,102277.64
2018-03-21T09:00:36.708Z,102266.42
2018-03-21T09:03:02.474Z,102265.66
2018-03-21T09:05:28.227Z,102264.59
2018-03-21T09:07:54.065Z,102262.36
2018-03-21T09:10:19.826Z,102261.93
2018-03-21T09:12:45.571Z,102263.86
2018-03-21T09:15:11.369Z,102265.32
2018-03-21T09:17:37.128Z,102260.46
2018-03-21T09:20:02.922Z,102259.33
2018-03-21T09:22:28.699Z,102256.44
2018-03-21T09:24:54.696Z,102253.14
2018-03-21T09:27:20.465Z,102259.97
2018-03-21T09:29:46.252Z,102255.19
2018-03-21T09:32:12.071Z,102259.45
2018-03-21T09:34:37.780Z,102254.31
2018-03-21T09:37:03.533Z,102262.88
2018-03-21T09:39:29.285Z,102257.16
2018-03-21T09:41:55.401Z,102250.45
2018-03-21T09:44:21.142Z,102255.56
2018-03-21T09:46:46.890Z,102260.83
2018-03-21T09:49:12.686Z,102253.47
2018-03-21T09:51:38.485Z,102260.45
2018-03-21T09:54:04.234Z,102262.70
2018-03-21T09:56:30.016Z,102261.36
2018-03-21T09:58:56.219Z,102263.20
2018-03-21T10:01:21.965Z,102261.31
2018-03-21T10:03:47.753Z,102264.39
2018-03-21T10:06:13.508Z,102255.53
2018-03-21T10:08:39.253Z,102254.89
2018-03-21T10:11:05.049Z,102247.92
2018-03-21T10:13:30.825Z,102255.06
2018-03-21T10:15:56.598Z,102250.70
2018-03-21T10:18:22.360Z,102248.55
2018-03-21T10:20:48.113Z,102252.73
2018-03-21T10:23:13.889Z,102245.74
2018-03-21T10:25:40.149Z,102240.39
2018-03-21T10:28:05.897Z,102238.33
2018-03-21T10:30:31.644Z,102224.20
2018-03-21T10:32:57.417Z,102226.95
2018-03-21T10:35:23.197Z,102227.13
2018-03-21T10:37:48.961Z,102224.98
2018-03-21T10:40:14.717Z,102226.51
2018-03-21T10:42:40.515Z,102210.00
2018-03-21T10:45:06.300Z,102216.36
2018-03-21T10:47:32.065Z,102213.81
2018-03-21T10:49:57.849Z,102207.22
2018-03-21T10:52:23.626Z,102214.57
2018-03-21T10:54:50.501Z,102211.03
2018-03-21T10:57:16.249Z,102212.17
2018-03-21T10:59:42.005Z,102217.14
2018-03-21T11:02:13.645Z,102216.53
2018-03-21T11:04:39.413Z,102217.12
2018-03-21T11:07:05.168Z,102211.11
2018-03-21T11:09:30.949Z,102218.62
2018-03-21T11:11:56.707Z,102219.66
2018-03-21T11:14:22.493Z,102211.69
2018-03-21T11:16:48.257Z,102214.75
2018-03-21T11:19:14.123Z,102212.03
2018-03-21T11:21:40.325Z,102205.53
2018-03-21T11:24:06.150Z,102210.80
2018-03-21T11:26:31.896Z,102207.47
2018-03-21T11:28:57.636Z,102217.80
2018-03-21T11:31:23.412Z,102213.91
2018-03-21T11:33:49.157Z,102216.64
2018-03-21T11:36:14.949Z,102213.98
2018-03-21T11:38:40.708Z,102215.03
2018-03-21T11:41:06.465Z,102211.90
2018-03-21T11:43:32.272Z,102216.20
2018-03-21T11:45:58.021Z,102213.11
2018-03-21T11:48:23.766Z,102214.28
2018-03-21T11:50:49.534Z,102202.53
2018-03-21T11:53:15.653Z,102203.00
2018-03-21T11:55:41.442Z,102201.87
2018-03-21T11:58:07.215Z,102207.33
2018-03-21T12:00:32.997Z,102222.80
2018-03-21T12:02:58.750Z,102221.83
2018-03-21T12:05:24.524Z,102212.61
2018-03-21T12:07:50.286Z,102204.44
2018-03-21T12:10:16.397Z,102201.56
2018-03-21T12:12:42.161Z,102202.27
2018-03-21T12:15:07.922Z,102200.12
2018-03-21T12:17:33.689Z,102189.83
2018-03-21T12:19:59.456Z,102207.22
2018-03-21T12:22:25.225Z,102206.58
2018-03-21T12:24:50.966Z,102210.84
2018-03-21T12:27:17.272Z,102206.45
2018-03-21T12:29:43.049Z,102207.94
2018-03-21T12:32:08.813Z,102205.77
2018-03-21T12:34:34.589Z,102208.11
2018-03-21T12:37:00.336Z,102212.13
2018-03-21T12:39:26.089Z,102210.38
2018-03-21T12:41:51.866Z,102210.80
2018-03-21T12:44:17.648Z,102201.98
2018-03-21T12:46:43.430Z,102196.03
2018-03-21T12:49:09.197Z,102185.28
2018-03-21T12:51:34.962Z,102186.15
2018-03-21T12:54:01.145Z,102189.75
2018-03-21T12:56:26.920Z,102187.97
2018-03-21T12:58:52.702Z,102180.50
2018-03-21T13:01:18.464Z,102169.11
2018-03-21T13:03:44.234Z,102172.73
2018-03-21T13:06:09.979Z,102170.26
2018-03-21T13:08:35.768Z,102164.81
2018-03-21T13:11:01.514Z,102163.72
2018-03-21T13:13:27.290Z,102167.28
2018-03-21T13:15:53.080Z,102166.54
2018-03-21T13:18:18.865Z,102168.27
2018-03-21T13:20:44.629Z,102170.58
2018-03-21T13:23:10.894Z,102169.30
2018-03-21T13:25:36.641Z,102168.97
2018-03-21T13:28:02.413Z,102164.20
2018-03-21T13:30:28.170Z,102166.65
2018-03-21T13:32:53.949Z,102158.84
2018-03-21T13:35:19.688Z,102164.00
2018-03-21T13:37:45.472Z,102156.77
2018-03-21T13:40:11.220Z,102156.77
2018-03-21T13:42:36.973Z,102156.38
2018-03-21T13:45:02.761Z,102151.52
2018-03-21T13:47:28.533Z,102149.07
2018-03-21T13:49:54.290Z,102154.72
2018-03-21T13:52:20.493Z,102149.98
2018-03-21T13:54:46.245Z,102146.42
2018-03-21T13:57:11.996Z,102144.59
2018-03-21T13:59:37.777Z,102143.42
2018-03-21T14:02:03.604Z,102139.17
2018-03-21T14:04:29.384Z,102140.67
2018-03-21T14:06:55.174Z,102137.97
2018-03-21T14:09:21.205Z,102143.94
2018-03-21T14:11:46.974Z,102144.12
2018-03-21T14:14:12.759Z,102135.63
2018-03-21T14:16:38.510Z,102142.73
2018-03-21T14:19:04.304Z,102127.34
2018-03-21T14:21:30.102Z,102120.95
2018-03-21T14:23:55.973Z,102127.41
2018-03-21T14:26:22.138Z,102131.42
2018-03-21T14:28:47.914Z,102127.92
2018-03-21T14:31:13.669Z,102131.64
2018-03-21T14:33:39.433Z,102135.91
2018-03-21T14:36:05.209Z,102132.38
2018-03-21T14:38:30.978Z,102130.20
2018-03-21T14:40:56.752Z,102129.44
2018-03-21T14:43:22.545Z,102124.80
2018-03-21T14:45:48.333Z,102122.97
2018-03-21T14:48:14.082Z,102119.20
2018-03-21T14:50:39.838Z,102110.62
2018-03-21T14:53:05.602Z,102107.94
2018-03-21T14:55:31.409Z,102106.20
2018-03-21T14:57:57.597Z,102102.62
2018-03-21T15:00:23.358Z,102104.95
2018-03-21T15:02:49.113Z,102104.92
2018-03-21T15:05:14.888Z,102104.50
2018-03-21T15:07:40.642Z,102096.07
2018-03-21T15:10:06.451Z,102086.45
2018-03-21T15:12:32.225Z,102086.38
2018-03-21T15:14:58.008Z,102082.16
2018-03-21T15:17:23.780Z,102085.23
2018-03-21T15:19:49.568Z,102085.92
2018-03-21T15:22:15.673Z,102079.08
2018-03-21T15:24:41.445Z,102075.77
2018-03-21T15:27:07.234Z,102070.19
2018-03-21T15:29:33.002Z,102066.61
2018-03-21T15:31:58.791Z,102075.11
2018-03-21T15:34:24.605Z,102071.24
2018-03-21T15:36:50.389Z,102074.40
2018-03-21T15:39:16.179Z,102070.98
2018-03-21T15:41:42.016Z,102068.91
2018-03-21T15:44:07.797Z,102072.96
2018-03-21T15:46:33.586Z,102067.61
2018-03-21T15:48:59.413Z,102065.03
2018-03-21T15:51:25.525Z,102071.11
2018-03-21T15:53:51.309Z,102063.27
2018-03-21T15:56:17.099Z,102063.66
2018-03-21T15:58:42.858Z,102064.84
2018-03-21T16:01:08.713Z,102057.17
2018-03-21T16:03:34.536Z,102058.67
2018-03-21T16:06:00.301Z,102055.41
2018-03-21T16:08:26.112Z,102052.14
2018-03-21T16:10:51.893Z,102048.29
2018-03-21T16:13:17.648Z,102046.66
2018-03-21T16:15:43.445Z,102049.46
2018-03-21T16:18:09.201Z,102041.30
2018-03-21T16:20:34.981Z,102044.34
2018-03-21T16:23:00.761Z,102042.41
2018-03-21T16:25:26.868Z,102035.33
2018-03-21T16:27:52.623Z,102033.02
2018-03-21T16:30:18.402Z,102036.72
2018-03-21T16:32:44.157Z,102027.91
2018-03-21T16:35:09.931Z,102032.22
2018-03-21T16:37:35.677Z,102027.88
2018-03-21T16:40:01.440Z,102029.67
2018-03-21T16:42:27.214Z,102032.09
2018-03-21T16:44:52.973Z,102025.96
2018-03-21T16:47:18.753Z,102029.19
2018-03-21T16:49:44.895Z,102024.94
2018-03-21T16:52:10.644Z,102024.06
2018-03-21T16:54:36.433Z,102022.23
2018-03-21T16:57:02.190Z,102025.00
2018-03-21T16:59:27.945Z,102024.13
2018-03-21T17:01:53.698Z,102022.03
2018-03-21T17:04:19.477Z,102018.73
2018-03-21T17:06:45.473Z,102020.92
2018-03-21T17:09:11.231Z,102016.16
2018-03-21T17:11:37.037Z,102013.48
2018-03-21T17:14:02.809Z,102015.86
2018-03-21T17:16:28.601Z,102011.46
2018-03-21T17:18:54.377Z,102010.31
2018-03-21T17:21:20.155Z,102012.14
2018-03-21T17:23:45.916Z,102014.16
2018-03-21T17:26:11.678Z,102016.56
2018-03-21T17:28:37.745Z,102008.02
2018-03-21T17:31:03.509Z,102003.41
2018-03-21T17:33:29.263Z,102003.05
2018-03-21T17:35:55.019Z,102003.20
2018-03-21T17:38:20.787Z,101998.46
2018-03-21T17:40:46.642Z,101992.03
2018-03-21T17:43:12.400Z,101998.25
2018-03-21T17:45:38.179Z,101990.41
2018-03-21T17:48:04.022Z,101990.46
2018-03-21T17:50:29.844Z,101984.89
2018-03-21T17:52:56.272Z,101983.28
2018-03-21T17:55:22.020Z,101981.62
2018-03-21T17:57:47.834Z,101976.95
2018-03-21T18:00:13.634Z,101979.63
2018-03-21T18:02:39.402Z,101977.08
2018-03-21T18:05:08.071Z,101967.20
2018-03-21T18:07:33.825Z,101980.11
2018-03-21T18:09:59.850Z,101975.69
2018-03-21T18:12:25.601Z,101976.42
2018-03-21T18:14:51.348Z,101981.55
2018-03-21T18:17:17.109Z,101973.48
2018-03-21T18:19:42.856Z,101968.65
2018-03-21T18:22:08.711Z,101965.59
2018-03-21T18:24:37.452Z,101964.83
2018-03-21T18:27:03.546Z,101960.10
2018-03-21T18:29:29.349Z,101956.86
2018-03-21T18:31:55.098Z,101953.95
2018-03-21T18:34:20.878Z,101957.02
2018-03-21T18:36:46.733Z,101954.98
2018-03-21T18:39:12.488Z,101954.64
2018-03-21T18:41:38.236Z,101948.38
2018-03-21T18:44:04.020Z,101945.98
2018-03-21T18:46:29.764Z,101942.92
2018-03-21T18:48:55.570Z,101946.14
2018-03-21T18:51:21.356Z,101938.45
2018-03-21T18:53:47.102Z,101942.47
2018-03-21T18:56:13.480Z,101935.56
2018-03-21T18:58:39.240Z,101940.17
2018-03-21T19:01:05.034Z,101933.23
2018-03-21T19:03:30.844Z,101928.66
2018-03-21T19:05:56.624Z,101923.27
2018-03-21T19:08:22.405Z,101917.81
2018-03-21T19:10:48.182Z,101918.30
2018-03-21T19:13:20.145Z,101913.23
2018-03-21T19:15:39.696Z,101911.61
2018-03-21T19:18:05.485Z,101911.94
2018-03-21T19:20:31.302Z,101907.19
2018-03-21T19:22:57.571Z,101909.52
2018-03-21T19:25:23.341Z,101903.97
2018-03-21T19:27:49.217Z,101896.06
2018-03-21T19:30:14.993Z,101891.46
2018-03-21T19:32:40.757Z,101888.46
2018-03-21T19:35:06.500Z,101884.73
2018-03-21T19:37:32.241Z,101887.80
2018-03-21T19:39:58.327Z,101887.09
2018-03-21T19:42:24.114Z,101892.14
2018-03-21T19:44:49.886Z,101887.36
2018-03-21T19:47:15.646Z,101883.42
2018-03-21T19:49:41.401Z,101885.72
2018-03-21T19:52:07.211Z,101881.54
2018-03-21T19:54:32.975Z,101875.78
2018-03-21T19:56:59.348Z,101868.13
2018-03-21T19:59:25.125Z,101868.52
2018-03-21T20:01:50.876Z,101864.64
2018-03-21T20:04:16.873Z,101870.84
2018-03-21T20:06:42.655Z,101865.00
2018-03-21T20:09:08.624Z,101859.73
2018-03-21T20:11:34.429Z,101858.97
2018-03-21T20:14:00.217Z,101851.20
2018-03-21T20:16:25.968Z,101849.98
2018-03-21T20:18:51.745Z,101844.33
2018-03-21T20:21:18.059Z,101846.11
2018-03-21T20:23:43.813Z,101844.92
2018-03-21T20:26:09.561Z,101843.52
2018-03-21T20:28:35.336Z,101839.38
2018-03-21T20:31:01.123Z,101836.83
2018-03-21T20:33:26.824Z,101839.20
2018-03-21T20:35:52.597Z,101838.77
2018-03-21T20:38:18.880Z,101830.48
2018-03-21T20:40:44.681Z,101830.06
2018-03-21T20:43:10.450Z,101827.48
2018-03-21T20:45:36.279Z,101830.00
2018-03-21T20:48:09.857Z,101822.56
2018-03-21T20:50:35.661Z,101815.99
2018-03-21T20:53:01.610Z,101812.00
2018-03-21T20:55:27.697Z,101806.58
2018-03-21T20:57:53.453Z,101804.07
2018-03-21T21:00:19.216Z,101794.62
2018-03-21T21:02:44.990Z,101790.03
2018-03-21T21:05:10.789Z,101787.70
2018-03-21T21:07:36.534Z,101784.16
2018-03-21T21:10:02.314Z,101781.83
2018-03-21T21:12:28.081Z,101773.00
2018-03-21T21:14:53.851Z,101768.19
2018-03-21T21:17:19.614Z,101762.44
2018-03-21T21:19:45.395Z,101760.78
2018-03-21T21:22:11.142Z,101753.42
2018-03-21T21:24:36.924Z,101746.05
2018-03-21T21:27:03.152Z,101752.09
2018-03-21T21:29:28.919Z,101744.80
2018-03-21T21:31:54.693Z,101731.95
2018-03-21T21:34:20.440Z,101734.67
2018-03-21T21:36:46.205Z,101734.00
2018-03-21T21:39:11.968Z,101698.22
2018-03-21T21:41:37.776Z,101716.08
2018-03-21T21:44:03.521Z,101707.38
2018-03-21T21:46:29.285Z,101704.11
2018-03-21T21:48:55.041Z,101698.14
2018-03-21T21:51:20.808Z,101683.27
2018-03-21T21:53:46.743Z,101687.68
2018-03-21T21:56:12.963Z,101682.96
2018-03-21T21:58:38.716Z,101679.66
2018-03-21T22:01:04.485Z,101675.95
2018-03-21T22:03:30.249Z,101670.39
2018-03-21T22:05:56.033Z,101668.93
2018-03-21T22:08:21.792Z,101667.44
2018-03-21T22:10:47.556Z,101658.76
2018-03-21T22:13:13.317Z,101651.05
2018-03-21T22:15:39.089Z,101642.73
2018-03-21T22:18:04.846Z,101643.45
2018-03-21T22:20:30.595Z,101631.47
2018-03-21T22:22:56.565Z,101626.81
2018-03-21T22:25:22.309Z,101626.33
2018-03-21T22:27:48.048Z,101624.41
2018-03-21T22:30:13.805Z,101619.63
2018-03-21T22:32:39.556Z,101612.99
2018-03-21T22:35:05.292Z,101613.02
2018-03-21T22:37:31.068Z,101605.64
2018-03-21T22:39:56.834Z,101603.59
2018-03-21T22:42:22.588Z,101598.20
2018-03-21T22:44:48.357Z,101588.16
2018-03-21T22:47:14.104Z,101586.00
2018-03-21T22:49:39.840Z,101582.31
2018-03-21T22:52:05.629Z,101581.17
2018-03-21T22:54:31.819Z,101574.64
2018-03-21T22:56:57.565Z,101573.50
2018-03-21T22:59:23.320Z,101568.45
2018-03-21T23:01:49.060Z,101552.78
2018-03-21T23:04:14.825Z,101563.02
2018-03-21T23:06:40.598Z,101529.58
2018-03-21T23:09:06.356Z,101558.98
2018-03-21T23:11:32.148Z,101557.72
2018-03-21T23:13:57.957Z,101552.55
2018-03-21T23:16:23.709Z,101549.04
2018-03-21T23:18:49.437Z,101547.84
2018-03-21T23:21:15.205Z,101545.02
2018-03-21T23:23:40.955Z,101549.08
2018-03-21T23:26:07.087Z,101540.05
2018-03-21T23:28:32.865Z,101531.84
2018-03-21T23:30:58.621Z,101533.15
2018-03-21T23:33:24.369Z,101524.36
2018-03-21T23:35:50.118Z,101511.95
2018-03-21T23:38:15.871Z,101509.02
2018-03-21T23:40:41.654Z,101495.69
2018-03-21T23:43:07.407Z,101495.56
2018-03-21T23:45:33.188Z,101490.09
2018-03-21T23:47:58.951Z,101485.31
2018-03-21T23:50:25.077Z,101480.95
2018-03-21T23:52:50.818Z,101474.97
2018-03-21T23:55:16.584Z,101460.09
2018-03-21T23:57:42.328Z,101455.25
